»·PEaware :: N119GN KBZN-KGEG

N119GN :: KBZN-KGEG

FLIGHT INFORMATION

Flight Status: Arrived
Operator: Privately registered:
United States
More flights under this callsign
Pilot: Giovanni N. (25716)
Aircraft: AIRBUS A319
(A319)
More flights by this aircraft type
Origin: KBZN Gallatin
United States
Destination: KGEG Spokane Intl
United States
More flights between these airports :: More routes between these airports
Route: +TEERX4 HIA MLP HILIE2
File this flight plan on PilotEdge
Remarks: +CW / RMK / SIMBRIEF
Altitude:
(Current/Filed)
36,000ft
Speed:
(Current/Filed)
439kts
Departed: 27-Mar-20 09:17 AM
Arrived: 27-Mar-20 10:05 AM
Distance/Time
Traveled:
285nm/0:48
Distance/Time
To Go:
Arrived

Flight Plot

Page will automatically refresh every two minutes.

Flight plan parsing failed; only flown route is shown


Map Options




Map Legend


Flown Route
Filed Route
Departure Airport
Arrival Airport
Navaid (VOR, NDB)
Fix

Horizontal Profiles

Position Reports

Time Latitude Longitude Heading Altitude Ground
Speed
27-Mar-20 08:47 45.778807 -111.160526 221 4457ft 0kts
27-Mar-20 08:48 45.778807 -111.160526 221 4457ft 0kts
27-Mar-20 08:49 45.778807 -111.160526 221 4457ft 0kts
27-Mar-20 08:50 45.778807 -111.160526 221 4457ft 0kts
27-Mar-20 08:51 45.778807 -111.160526 221 4457ft 0kts
27-Mar-20 08:52 45.778807 -111.160526 221 4457ft 0kts
27-Mar-20 08:53 45.778807 -111.160526 221 4457ft 0kts
27-Mar-20 08:54 45.778807 -111.160526 221 4457ft 0kts
27-Mar-20 08:55 45.778807 -111.160526 221 4457ft 0kts
27-Mar-20 08:56 45.778807 -111.160526 221 4457ft 0kts
27-Mar-20 08:57 45.778807 -111.160526 221 4457ft 0kts
27-Mar-20 08:58 45.778807 -111.160526 221 4457ft 0kts
27-Mar-20 08:59 45.778807 -111.160526 221 4457ft 0kts
27-Mar-20 09:00 45.778807 -111.160526 221 4457ft 0kts
27-Mar-20 09:01 45.778807 -111.160526 221 4457ft 0kts
27-Mar-20 09:02 45.778807 -111.160526 221 4457ft 0kts
27-Mar-20 09:03 45.778807 -111.160526 221 4457ft 0kts
27-Mar-20 09:04 45.778807 -111.160526 221 4457ft 0kts
27-Mar-20 09:05 45.778807 -111.160526 221 4457ft 0kts
27-Mar-20 09:06 45.778807 -111.160526 221 4457ft 0kts
27-Mar-20 09:07 45.778814 -111.160518 221 4457ft 1kts
27-Mar-20 09:08 45.779069 -111.159816 305 4456ft 2kts
27-Mar-20 09:09 45.778995 -111.159707 316 4456ft 0kts
27-Mar-20 09:10 45.778995 -111.159707 316 4456ft 0kts
27-Mar-20 09:11 45.779017 -111.159737 315 4456ft 0kts
27-Mar-20 09:12 45.779862 -111.160862 342 4455ft 8kts
27-Mar-20 09:13 45.782450 -111.162886 319 4449ft 15kts
27-Mar-20 09:14 45.785973 -111.167735 316 4439ft 12kts
27-Mar-20 09:15 45.787006 -111.165014 133 4437ft 32kts
27-Mar-20 09:16 45.756376 -111.130304 184 6002ft 179kts
27-Mar-20 09:17 45.714638 -111.183452 228 8032ft 235kts
27-Mar-20 09:18 45.705742 -111.284711 280 10297ft 286kts
27-Mar-20 09:19 45.721071 -111.414005 280 11766ft 361kts
27-Mar-20 09:20 45.738734 -111.570893 280 13780ft 406kts
27-Mar-20 09:21 45.765634 -111.732276 289 16267ft 422kts
27-Mar-20 09:22 45.802072 -111.896918 289 18462ft 437kts
27-Mar-20 09:23 45.839976 -112.069927 289 20519ft 449kts
27-Mar-20 09:24 45.893908 -112.236537 306 22303ft 455kts
27-Mar-20 09:25 45.968872 -112.390638 306 23837ft 465kts
27-Mar-20 09:26 46.044724 -112.547599 306 25373ft 469kts
27-Mar-20 09:27 46.118913 -112.702177 305 26979ft 468kts
27-Mar-20 09:28 46.193231 -112.857404 305 28563ft 464kts
27-Mar-20 09:29 46.267153 -113.013036 305 29913ft 463kts
27-Mar-20 09:30 46.340832 -113.169118 305 31196ft 460kts
27-Mar-20 09:31 46.413449 -113.323799 304 32323ft 457kts
27-Mar-20 09:32 46.484669 -113.476340 304 33285ft 454kts
27-Mar-20 09:33 46.555903 -113.629729 304 34143ft 452kts
27-Mar-20 09:34 46.625454 -113.780711 303 34872ft 449kts
27-Mar-20 09:35 46.695662 -113.933677 303 35504ft 447kts
27-Mar-20 09:36 46.765258 -114.086005 303 35924ft 444kts
27-Mar-20 09:37 46.833905 -114.237106 303 35941ft 444kts
27-Mar-20 09:38 46.902816 -114.389560 303 35947ft 443kts
27-Mar-20 09:39 46.971343 -114.542006 303 35948ft 442kts
27-Mar-20 09:40 47.039304 -114.694157 302 35945ft 442kts
27-Mar-20 09:41 47.105619 -114.843640 302 35946ft 442kts
27-Mar-20 09:42 47.175285 -115.000200 302 35595ft 441kts
27-Mar-20 09:43 47.242736 -115.153450 302 34614ft 441kts
27-Mar-20 09:44 47.310155 -115.307598 302 33634ft 441kts
27-Mar-20 09:45 47.376913 -115.461104 302 31851ft 444kts
27-Mar-20 09:46 47.443119 -115.618747 295 28241ft 451kts
27-Mar-20 09:47 47.466523 -115.800161 275 24499ft 454kts
27-Mar-20 09:48 47.477729 -115.985018 276 21746ft 441kts
27-Mar-20 09:50 47.488281 -116.162431 276 19243ft 415kts
27-Mar-20 09:51 47.498043 -116.330503 276 16821ft 397kts
27-Mar-20 09:52 47.507210 -116.492608 275 14410ft 361kts
27-Mar-20 09:53 47.514671 -116.628642 276 13011ft 309kts
27-Mar-20 09:54 47.521591 -116.757196 275 13006ft 309kts
27-Mar-20 09:55 47.528309 -116.884088 275 11593ft 301kts
27-Mar-20 09:56 47.567274 -116.989519 313 9828ft 297kts
27-Mar-20 09:57 47.625632 -117.071726 314 8619ft 251kts
27-Mar-20 09:58 47.673979 -117.139457 314 7367ft 235kts
27-Mar-20 09:59 47.722038 -117.208565 308 6103ft 237kts
27-Mar-20 10:00 47.757189 -117.291812 267 5014ft 224kts
27-Mar-20 10:01 47.732184 -117.365049 226 5002ft 186kts
27-Mar-20 10:02 47.695952 -117.420845 224 4219ft 182kts
27-Mar-20 10:03 47.663692 -117.469449 224 3304ft 138kts
27-Mar-20 10:04 47.637468 -117.508717 225 2579ft 130kts
27-Mar-20 10:05 47.620373 -117.535308 258 2392ft 24kts
27-Mar-20 10:06 47.619924 -117.537917 259 2392ft 0kts
27-Mar-20 10:07 47.620693 -117.538218 44 2392ft 10kts
27-Mar-20 10:08 47.623301 -117.535480 3 2392ft 9kts
27-Mar-20 10:09 47.624062 -117.535625 339 2392ft 0kts
27-Mar-20 10:10 47.624062 -117.535625 339 2392ft 0kts
27-Mar-20 10:10 47.624062 -117.535625 339 2392ft 0kts

Navigation Log

Ident Type
Flight plan parsing failed, navigation log unavailable